Time;durP1;ratioP1;P1;durP2;ratioP2;P2;SDS_P1;SDS_P2;PMS_P1;PMS_P2;Temp;Humidity;BMP_temperature;BMP_pressure;BME280_temperature;BME280_humidity;BME280_pressure;Samples;Min_cycle;Max_cycle;Signal;HPM_P1;HPM_P2
2023/06/14 00:01:13;;;;;;;1999.90;999.90;;;;;;;29.82;28.18;101584.19;5059328;28;20021;-64
2023/06/14 00:03:38;;;;;;;1999.90;999.90;;;;;;;29.86;27.11;101585.69;5068652;28;20078;-64
2023/06/14 00:06:04;;;;;;;1999.90;999.90;;;;;;;29.03;27.70;101602.88;5069730;28;20431;-63
2023/06/14 00:08:30;;;;;;;1999.90;999.90;;;;;;;28.90;27.70;101598.44;5050992;28;20031;-64
2023/06/14 00:10:55;;;;;;;1999.90;999.90;;;;;;;28.83;29.17;101596.34;5076248;28;20081;-64
2023/06/14 00:13:21;;;;;;;1999.90;999.90;;;;;;;28.93;27.75;101587.47;5088542;28;20031;-64
2023/06/14 00:15:47;;;;;;;1999.90;999.90;;;;;;;29.33;27.88;101585.38;5055974;28;20041;-63
2023/06/14 00:18:12;;;;;;;1999.90;999.90;;;;;;;29.57;27.54;101583.44;5051388;28;20473;-64
2023/06/14 00:20:39;;;;;;;1999.90;999.90;;;;;;;29.17;28.45;101586.56;5053609;28;20116;-63
2023/06/14 00:23:04;;;;;;;1999.90;999.90;;;;;;;29.28;28.18;101593.84;5059849;28;20139;-64
2023/06/14 00:25:30;;;;;;;1999.90;999.90;;;;;;;29.30;27.89;101593.72;5059226;28;20116;-64
2023/06/14 00:27:56;;;;;;;1999.90;999.90;;;;;;;29.54;28.81;101597.16;5050277;28;20036;-63
2023/06/14 00:30:22;;;;;;;1999.90;999.90;;;;;;;29.21;28.40;101597.91;5070619;28;20056;-64
2023/06/14 00:32:47;;;;;;;1999.90;999.90;;;;;;;29.18;28.00;101600.84;5070866;28;20501;-63
2023/06/14 00:35:13;;;;;;;1999.90;999.90;;;;;;;29.51;28.65;101594.72;5077377;28;20119;-63
2023/06/14 00:37:39;;;;;;;1999.90;999.90;;;;;;;29.48;29.48;101592.25;5050574;28;20427;-64
2023/06/14 00:40:05;;;;;;;1999.90;999.90;;;;;;;28.18;29.66;101596.59;5069187;28;20478;-63
2023/06/14 00:42:31;;;;;;;1999.90;999.90;;;;;;;29.20;29.13;101593.53;5087846;28;20028;-64
2023/06/14 00:44:57;;;;;;;1999.90;999.90;;;;;;;28.40;29.99;101595.03;5061640;28;20023;-63
2023/06/14 00:47:23;;;;;;;1999.90;999.90;;;;;;;29.21;28.89;101596.09;5069593;28;20036;-64
2023/06/14 00:49:53;;;;;;;1999.90;999.90;;;;;;;29.03;29.19;101598.38;5070304;28;20130;-63
2023/06/14 00:52:19;;;;;;;1999.90;999.90;;;;;;;28.74;28.99;101597.88;5059986;28;20028;-63
2023/06/14 00:54:45;;;;;;;1999.90;999.90;;;;;;;29.41;28.54;101596.41;5068189;28;20049;-63
2023/06/14 00:57:12;;;;;;;1999.90;999.90;;;;;;;29.22;28.56;101603.22;5068679;28;20059;-63
2023/06/14 00:59:46;;;;;;;1999.90;999.90;;;;;;;28.37;29.68;101596.09;5050592;28;20548;-63
2023/06/14 01:02:14;;;;;;;1999.90;999.90;;;;;;;28.80;28.87;101597.44;5051003;28;20032;-63
2023/06/14 01:04:49;;;;;;;1999.90;999.90;;;;;;;28.00;29.67;101595.22;5071204;28;20333;-64
2023/06/14 01:07:42;;;;;;;1999.90;999.90;;;;;;;28.32;28.85;101597.41;5050954;28;20033;-63
2023/06/14 01:10:26;;;;;;;1999.90;999.90;;;;;;;28.27;29.35;101593.22;5059799;28;20020;-64
2023/06/14 01:13:07;;;;;;;1999.90;999.90;;;;;;;28.44;28.29;101593.81;5070457;28;20085;-63
2023/06/14 01:15:36;;;;;;;1999.90;999.90;;;;;;;28.46;28.30;101589.19;5069128;28;20107;-62
2023/06/14 01:18:03;;;;;;;1999.90;999.90;;;;;;;28.20;27.85;101589.25;5050015;28;20127;-62
2023/06/14 01:20:31;;;;;;;1999.90;999.90;;;;;;;28.49;29.05;101583.56;5063855;28;20042;-62
2023/06/14 01:22:56;;;;;;;1999.90;999.90;;;;;;;28.25;28.83;101591.63;5088544;28;20038;-61
2023/06/14 01:25:22;;;;;;;1999.90;999.90;;;;;;;28.56;27.26;101590.22;5087547;28;20570;-62
2023/06/14 01:28:00;;;;;;;1999.90;999.90;;;;;;;28.58;27.36;101587.41;5070375;28;20035;-62
2023/06/14 01:30:26;;;;;;;1999.90;999.90;;;;;;;28.10;27.83;101588.22;5054975;28;20020;-62
2023/06/14 01:32:54;;;;;;;1999.90;999.90;;;;;;;28.09;28.00;101586.50;5054451;28;20504;-63
2023/06/14 01:35:20;;;;;;;1999.90;999.90;;;;;;;28.44;27.06;101581.22;5068441;28;20039;-63
2023/06/14 01:37:48;;;;;;;1999.90;999.90;;;;;;;28.27;27.37;101582.50;5092399;28;20475;-63
2023/06/14 01:40:15;;;;;;;1999.90;999.90;;;;;;;28.04;27.52;101594.03;5061088;28;20020;-63
2023/06/14 01:42:41;;;;;;;1999.90;999.90;;;;;;;28.29;26.85;101597.63;5071862;28;20047;-63
2023/06/14 01:45:07;;;;;;;1999.90;999.90;;;;;;;28.10;27.24;101588.22;5070827;28;20102;-63
2023/06/14 01:47:34;;;;;;;1999.90;999.90;;;;;;;28.11;27.32;101589.94;5053857;28;20484;-63
2023/06/14 01:49:59;;;;;;;1999.90;999.90;;;;;;;28.21;27.56;101590.13;5053803;28;20083;-63
2023/06/14 01:52:25;;;;;;;1999.90;999.90;;;;;;;28.22;27.05;101592.72;5071336;28;20060;-63
2023/06/14 01:54:51;;;;;;;1999.90;999.90;;;;;;;28.05;27.14;101590.38;5064939;28;20055;-63
2023/06/14 01:57:16;;;;;;;1999.90;999.90;;;;;;;28.21;26.68;101580.22;5073930;28;20491;-62
2023/06/14 01:59:42;;;;;;;1999.90;999.90;;;;;;;27.40;28.28;101585.03;5061688;28;20837;-63
2023/06/14 02:02:07;;;;;;;1999.90;999.90;;;;;;;28.15;27.68;101580.69;5054011;28;20107;-63
2023/06/14 02:04:33;;;;;;;1999.90;999.90;;;;;;;27.37;28.08;101584.41;5053630;28;20052;-63
2023/06/14 02:06:59;;;;;;;1999.90;999.90;;;;;;;27.97;27.37;101581.97;5052940;28;20031;-63
2023/06/14 02:09:24;;;;;;;1999.90;999.90;;;;;;;27.42;28.34;101582.25;5068184;28;20027;-63
2023/06/14 02:11:50;;;;;;;1999.90;999.90;;;;;;;27.44;28.00;101585.69;5070639;28;20472;-62
2023/06/14 02:14:16;;;;;;;1999.90;999.90;;;;;;;27.47;27.42;101588.16;5052843;28;20111;-63
2023/06/14 02:16:48;;;;;;;1999.90;999.90;;;;;;;27.26;28.27;101583.28;5071395;28;20396;-63
2023/06/14 02:19:18;;;;;;;1999.90;999.90;;;;;;;27.32;27.71;101586.53;5072798;28;20459;-63
2023/06/14 02:21:44;;;;;;;1999.90;999.90;;;;;;;27.51;28.03;101584.28;5089699;28;20190;-63
2023/06/14 02:24:10;;;;;;;1999.90;999.90;;;;;;;27.91;27.49;101578.75;5084833;28;20024;-63
2023/06/14 02:26:37;;;;;;;1999.90;999.90;;;;;;;28.16;27.24;101585.06;5087851;28;20503;-63
2023/06/14 02:29:03;;;;;;;1999.90;999.90;;;;;;;28.02;27.07;101591.47;5076477;28;20028;-63
2023/06/14 02:31:29;;;;;;;1999.90;999.90;;;;;;;27.38;27.57;101591.47;5070708;28;20486;-63
2023/06/14 02:33:55;;;;;;;1999.90;999.90;;;;;;;27.52;27.84;101594.06;5071395;28;20020;-62
2023/06/14 02:36:20;;;;;;;1999.90;999.90;;;;;;;27.47;27.75;101598.03;5053196;28;20036;-63
2023/06/14 02:38:46;;;;;;;1999.90;999.90;;;;;;;27.80;27.29;101592.13;5083399;28;20031;-63
2023/06/14 02:41:12;;;;;;;1999.90;999.90;;;;;;;27.39;28.41;101594.06;5072821;28;20061;-63
2023/06/14 02:43:37;;;;;;;1999.90;999.90;;;;;;;27.49;28.20;101594.28;5069796;28;20048;-63
2023/06/14 02:46:03;;;;;;;1999.90;999.90;;;;;;;27.25;28.38;101597.66;5055403;28;20034;-63
2023/06/14 02:48:30;;;;;;;1999.90;999.90;;;;;;;27.58;27.55;101593.63;5072224;28;20024;-63
2023/06/14 02:50:56;;;;;;;1999.90;999.90;;;;;;;27.81;27.24;101593.84;5070613;28;20057;-63
2023/06/14 02:53:21;;;;;;;1999.90;999.90;;;;;;;27.62;27.43;101605.03;5084920;28;20036;-63
2023/06/14 02:55:48;;;;;;;1999.90;999.90;;;;;;;27.46;28.45;101602.53;5052543;28;20052;-63
2023/06/14 02:58:14;;;;;;;1999.90;999.90;;;;;;;28.34;27.69;101607.06;5053190;28;20029;-63
2023/06/14 03:00:40;;;;;;;1999.90;999.90;;;;;;;27.90;27.42;101603.94;5070651;28;20403;-63
2023/06/14 03:03:13;;;;;;;1999.90;999.90;;;;;;;28.38;27.42;101607.69;5051020;28;20024;-63
2023/06/14 03:05:40;;;;;;;1999.90;999.90;;;;;;;28.32;27.64;101613.53;5052522;28;20028;-63
2023/06/14 03:08:06;;;;;;;1999.90;999.90;;;;;;;28.63;27.60;101603.19;5070884;28;20104;-63
2023/06/14 03:10:32;;;;;;;1999.90;999.90;;;;;;;28.94;27.79;101609.84;5051811;28;20028;-63
2023/06/14 03:12:57;;;;;;;1999.90;999.90;;;;;;;28.56;28.39;101611.72;5054053;28;20486;-63
2023/06/14 03:15:24;;;;;;;1999.90;999.90;;;;;;;28.57;27.69;101617.97;5057418;28;20073;-63
2023/06/14 03:17:50;;;;;;;1999.90;999.90;;;;;;;28.43;27.58;101627.03;5082852;28;20475;-63
2023/06/14 03:20:16;;;;;;;1999.90;999.90;;;;;;;27.88;28.02;101626.50;5052265;28;20468;-63
2023/06/14 03:22:41;;;;;;;1999.90;999.90;;;;;;;28.05;28.04;101628.84;5076014;28;20043;-63
2023/06/14 03:25:09;;;;;;;1999.90;999.90;;;;;;;28.38;28.47;101624.66;5069760;28;20051;-63
2023/06/14 03:27:37;;;;;;;1999.90;999.90;;;;;;;27.89;29.14;101639.81;5051843;28;20039;-63
2023/06/14 03:30:03;;;;;;;1999.90;999.90;;;;;;;27.25;30.41;101640.59;5080048;28;20067;-63
2023/06/14 03:32:28;;;;;;;1999.90;999.90;;;;;;;27.36;30.16;101636.38;5073595;28;20055;-63
2023/06/14 03:34:55;;;;;;;1999.90;999.90;;;;;;;27.55;30.08;101642.16;5058984;28;20040;-63
2023/06/14 03:37:20;;;;;;;1999.90;999.90;;;;;;;27.82;31.07;101648.41;5072387;28;20408;-63
2023/06/14 03:39:47;;;;;;;1999.90;999.90;;;;;;;27.63;31.04;101643.47;5060588;28;20040;-63
2023/06/14 03:42:14;;;;;;;1999.90;999.90;;;;;;;27.15;29.88;101642.19;5053944;28;20032;-63
2023/06/14 03:44:39;;;;;;;1999.90;999.90;;;;;;;27.48;30.35;101640.88;5051353;28;20028;-63
2023/06/14 03:47:05;;;;;;;1999.90;999.90;;;;;;;27.28;31.08;101644.03;5051719;28;20016;-63
2023/06/14 03:49:30;;;;;;;1999.90;999.90;;;;;;;27.66;31.29;101651.31;5063426;28;20031;-63
2023/06/14 03:51:56;;;;;;;1999.90;999.90;;;;;;;27.52;30.14;101654.94;5049990;28;20085;-63
2023/06/14 03:54:21;;;;;;;1999.90;999.90;;;;;;;27.42;30.72;101657.41;5086696;28;20028;-64
2023/06/14 03:56:47;;;;;;;1999.90;999.90;;;;;;;26.93;31.06;101650.84;5089993;28;20039;-63
2023/06/14 03:59:12;;;;;;;1999.90;999.90;;;;;;;27.32;31.75;101661.66;5088087;28;20490;-63
2023/06/14 04:01:38;;;;;;;1999.90;999.90;;;;;;;27.08;31.63;101648.94;5071425;28;20053;-63
2023/06/14 04:04:04;;;;;;;1999.90;999.90;;;;;;;27.47;30.35;101655.25;5052103;28;20505;-63
2023/06/14 04:06:32;;;;;;;1999.90;999.90;;;;;;;27.81;30.98;101660.09;5069483;28;20032;-63
2023/06/14 04:09:02;;;;;;;1999.90;999.90;;;;;;;27.63;30.63;101663.13;5051067;28;20421;-63
2023/06/14 04:11:27;;;;;;;1999.90;999.90;;;;;;;27.63;30.70;101656.88;5057338;28;20036;-63
2023/06/14 04:13:53;;;;;;;1999.90;999.90;;;;;;;27.64;30.52;101666.66;5067980;28;20028;-63
2023/06/14 04:16:19;;;;;;;1999.90;999.90;;;;;;;27.59;31.74;101659.78;5052686;28;20016;-63
2023/06/14 04:18:46;;;;;;;1999.90;999.90;;;;;;;27.79;29.39;101667.41;5070969;28;20763;-64
2023/06/14 04:21:12;;;;;;;1999.90;999.90;;;;;;;27.34;30.12;101670.44;5068629;28;20442;-63
2023/06/14 04:23:37;;;;;;;1999.90;999.90;;;;;;;27.85;30.00;101675.91;5071389;28;20020;-63
2023/06/14 04:26:03;;;;;;;1999.90;999.90;;;;;;;27.16;30.18;101673.44;5072275;28;20384;-63
2023/06/14 04:28:28;;;;;;;1999.90;999.90;;;;;;;26.82;31.63;101670.31;5049938;28;20051;-63
2023/06/14 04:30:54;;;;;;;1999.90;999.90;;;;;;;27.08;30.56;101673.09;5068676;28;20046;-63
2023/06/14 04:33:19;;;;;;;1999.90;999.90;;;;;;;27.69;30.51;101675.25;5089627;28;20020;-63
2023/06/14 04:35:47;;;;;;;1999.90;999.90;;;;;;;27.53;30.33;101676.34;5065526;28;20029;-64
2023/06/14 04:38:12;;;;;;;1999.90;999.90;;;;;;;27.61;29.94;101677.63;5050885;28;20029;-63
2023/06/14 04:40:42;;;;;;;1999.90;999.90;;;;;;;27.85;29.91;101669.66;5058025;28;20062;-63
2023/06/14 04:43:17;;;;;;;1999.90;999.90;;;;;;;27.61;29.64;101672.25;5068634;28;20547;-64
2023/06/14 04:45:45;;;;;;;1999.90;999.90;;;;;;;27.88;29.13;101675.69;5068948;28;20037;-63
2023/06/14 04:48:11;;;;;;;1999.90;999.90;;;;;;;28.58;27.70;101668.94;5050027;28;20021;-64
2023/06/14 04:50:36;;;;;;;1999.90;999.90;;;;;;;29.35;26.70;101672.28;5066588;28;20052;-64
2023/06/14 04:53:02;;;;;;;1999.90;999.90;;;;;;;30.15;25.73;101676.81;5078843;28;20028;-64
2023/06/14 04:55:28;;;;;;;1999.90;999.90;;;;;;;31.45;24.38;101666.16;5068575;28;20056;-64
2023/06/14 04:57:53;;;;;;;1999.90;999.90;;;;;;;32.05;24.06;101669.03;5050346;28;20460;-64
2023/06/14 05:00:23;;;;;;;1999.90;999.90;;;;;;;32.03;23.25;101670.19;5054160;28;20032;-64
2023/06/14 05:02:49;;;;;;;1999.90;999.90;;;;;;;32.03;23.21;101672.91;5063350;28;20486;-64
2023/06/14 05:05:15;;;;;;;1999.90;999.90;;;;;;;32.83;21.83;101678.41;5069152;28;20060;-64
2023/06/14 05:07:40;;;;;;;1999.90;999.90;;;;;;;34.20;21.74;101673.59;5072717;28;20021;-64
2023/06/14 05:10:06;;;;;;;1999.90;999.90;;;;;;;33.36;21.89;101680.72;5063699;28;20035;-64
2023/06/14 05:12:32;;;;;;;1999.90;999.90;;;;;;;33.21;21.17;101671.25;5073733;28;20020;-64
2023/06/14 05:14:58;;;;;;;1999.90;999.90;;;;;;;33.67;21.10;101679.63;5063296;28;20112;-64
2023/06/14 05:17:23;;;;;;;1999.90;999.90;;;;;;;33.17;22.49;101681.56;5054120;28;20032;-64
2023/06/14 05:19:49;;;;;;;1999.90;999.90;;;;;;;33.54;21.25;101688.06;5062926;28;20060;-64
2023/06/14 05:22:14;;;;;;;1999.90;999.90;;;;;;;33.06;22.06;101689.81;5073465;28;20092;-64
2023/06/14 05:24:41;;;;;;;1999.90;999.90;;;;;;;31.34;23.50;101685.97;5091587;28;20057;-64
2023/06/14 05:27:07;;;;;;;1999.90;999.90;;;;;;;30.56;24.36;101691.50;5072383;28;20395;-64
2023/06/14 05:29:32;;;;;;;1999.90;999.90;;;;;;;30.12;25.25;101693.25;5081538;28;20024;-64
2023/06/14 05:31:57;;;;;;;1999.90;999.90;;;;;;;29.72;25.13;101699.06;5090508;28;20035;-64
2023/06/14 05:34:23;;;;;;;1999.90;999.90;;;;;;;29.13;26.20;101694.53;5057866;28;20095;-64
2023/06/14 05:36:48;;;;;;;1999.90;999.90;;;;;;;27.51;27.80;101699.72;5082380;28;20048;-64
2023/06/14 05:39:14;;;;;;;1999.90;999.90;;;;;;;28.37;27.00;101692.00;5053156;28;20430;-64
2023/06/14 05:41:39;;;;;;;1999.90;999.90;;;;;;;28.22;27.54;101694.81;5066695;28;20032;-64
2023/06/14 05:44:04;;;;;;;1999.90;999.90;;;;;;;28.42;27.57;101695.22;5072576;28;20553;-64
2023/06/14 05:46:30;;;;;;;1999.90;999.90;;;;;;;28.16;27.61;101706.00;5067409;28;20048;-64
2023/06/14 05:48:56;;;;;;;1999.90;999.90;;;;;;;27.76;27.57;101703.41;5052897;28;20383;-64
2023/06/14 05:51:21;;;;;;;1999.90;999.90;;;;;;;27.21;28.82;101705.31;5059319;28;20032;-65
2023/06/14 05:53:48;;;;;;;1999.90;999.90;;;;;;;26.81;28.98;101706.13;5079475;28;20032;-64
2023/06/14 05:56:17;;;;;;;1999.90;999.90;;;;;;;27.68;28.72;101711.13;5092371;28;20504;-64
2023/06/14 05:58:43;;;;;;;1999.90;999.90;;;;;;;27.37;28.88;101713.25;5073067;28;20058;-64
2023/06/14 06:01:09;;;;;;;1999.90;999.90;;;;;;;27.86;28.01;101709.88;5063012;28;20048;-65
2023/06/14 06:03:35;;;;;;;1999.90;999.90;;;;;;;27.61;28.56;101709.84;5079506;28;20085;-64
2023/06/14 06:06:00;;;;;;;1999.90;999.90;;;;;;;28.09;27.85;101710.94;5073065;28;20052;-64
2023/06/14 06:08:26;;;;;;;1999.90;999.90;;;;;;;28.05;28.42;101713.97;5073990;28;20448;-64
2023/06/14 06:10:52;;;;;;;1999.90;999.90;;;;;;;28.67;27.92;101704.22;5067809;28;20028;-64
2023/06/14 06:13:17;;;;;;;1999.90;999.90;;;;;;;28.97;27.38;101717.22;5053268;28;20036;-65
2023/06/14 06:15:43;;;;;;;1999.90;999.90;;;;;;;30.40;25.73;101708.03;5059518;28;20023;-64
2023/06/14 06:18:08;;;;;;;1999.90;999.90;;;;;;;30.94;24.17;101706.38;5065659;28;20519;-64
2023/06/14 06:20:34;;;;;;;1999.90;999.90;;;;;;;32.81;22.18;101708.34;5071633;28;20041;-65
2023/06/14 06:22:59;;;;;;;1999.90;999.90;;;;;;;33.41;21.57;101712.78;5051918;28;20052;-64
2023/06/14 06:25:26;;;;;;;1999.90;999.90;;;;;;;35.14;20.58;101709.59;5053484;28;20024;-65
2023/06/14 06:27:53;;;;;;;1999.90;999.90;;;;;;;35.35;19.75;101711.16;5061585;28;20503;-65
2023/06/14 06:30:19;;;;;;;1999.90;999.90;;;;;;;35.05;19.40;101713.22;5064517;28;20107;-71
2023/06/14 06:32:45;;;;;;;1999.90;999.90;;;;;;;36.28;18.75;101727.69;5071113;28;20082;-71
2023/06/14 06:35:12;;;;;;;1999.90;999.90;;;;;;;35.06;18.95;101723.09;5071104;28;20024;-73
2023/06/14 06:37:38;;;;;;;1999.90;999.90;;;;;;;35.80;18.89;101720.97;5055204;28;20050;-71
2023/06/14 06:40:05;;;;;;;1999.90;999.90;;;;;;;35.10;19.66;101724.47;5060536;28;20295;-71
2023/06/14 06:42:31;;;;;;;1999.90;999.90;;;;;;;35.99;18.26;101726.19;5053175;28;20032;-72
2023/06/14 06:44:56;;;;;;;1999.90;999.90;;;;;;;36.50;17.80;101729.00;5055931;28;20101;-70
2023/06/14 06:47:22;;;;;;;1999.90;999.90;;;;;;;36.39;17.63;101742.06;5068666;28;20119;-70
2023/06/14 06:49:47;;;;;;;1999.90;999.90;;;;;;;37.62;16.88;101730.50;5061878;28;20028;-71
2023/06/14 06:52:13;;;;;;;1999.90;999.90;;;;;;;37.76;16.49;101738.03;5058083;28;20030;-70
2023/06/14 06:54:39;;;;;;;1999.90;999.90;;;;;;;38.39;16.60;101745.50;5071864;28;20501;-70
2023/06/14 06:57:06;;;;;;;1999.90;999.90;;;;;;;37.94;16.37;101753.31;5091460;28;20028;-70
2023/06/14 06:59:31;;;;;;;1999.90;999.90;;;;;;;37.99;16.79;101748.16;5073355;28;20125;-70
2023/06/14 07:01:57;;;;;;;1999.90;999.90;;;;;;;37.62;16.40;101745.00;5068685;28;20569;-71
2023/06/14 07:04:22;;;;;;;1999.90;999.90;;;;;;;36.84;16.99;101749.88;5065505;28;20033;-71
2023/06/14 07:06:48;;;;;;;1999.90;999.90;;;;;;;36.22;17.52;101758.28;5072753;28;20020;-69
2023/06/14 07:09:14;;;;;;;1999.90;999.90;;;;;;;36.37;18.05;101754.97;5090330;28;20024;-71
2023/06/14 07:11:39;;;;;;;1999.90;999.90;;;;;;;36.25;17.20;101768.84;5071195;28;20395;-70
2023/06/14 07:14:05;;;;;;;1999.90;999.90;;;;;;;36.76;17.34;101762.59;5073992;28;20020;-71
2023/06/14 07:16:31;;;;;;;1999.90;999.90;;;;;;;35.91;18.50;101755.22;5071400;28;20032;-70
2023/06/14 07:18:56;;;;;;;1999.90;999.90;;;;;;;38.21;16.76;101765.69;5052647;28;20031;-71
2023/06/14 07:21:21;;;;;;;1999.90;999.90;;;;;;;39.55;15.52;101768.31;5052780;28;20353;-71
2023/06/14 07:23:47;;;;;;;1999.90;999.90;;;;;;;38.40;15.83;101769.03;5065684;28;20123;-70
2023/06/14 07:26:12;;;;;;;1999.90;999.90;;;;;;;39.85;15.02;101768.41;5076899;28;20028;-70
2023/06/14 07:28:37;;;;;;;1999.90;999.90;;;;;;;40.34;15.74;101773.31;5055376;28;20028;-71
2023/06/14 07:31:03;;;;;;;1999.90;999.90;;;;;;;38.90;15.33;101775.97;5064186;28;20048;-70
2023/06/14 07:33:28;;;;;;;1999.90;999.90;;;;;;;41.02;14.22;101784.03;5090087;28;20028;-70
2023/06/14 07:35:53;;;;;;;1999.90;999.90;;;;;;;41.81;14.97;101773.16;5065181;28;20170;-72
2023/06/14 07:38:19;;;;;;;1999.90;999.90;;;;;;;41.44;14.36;101778.78;5071624;28;20123;-71
2023/06/14 07:40:44;;;;;;;1999.90;999.90;;;;;;;40.81;14.01;101779.38;5071899;28;20019;-70
2023/06/14 07:43:10;;;;;;;1999.90;999.90;;;;;;;39.18;14.91;101789.13;5079875;28;20388;-70
2023/06/14 07:45:37;;;;;;;1999.90;999.90;;;;;;;39.85;15.46;101779.34;5051701;28;20025;-70
2023/06/14 07:48:02;;;;;;;1999.90;999.90;;;;;;;40.85;15.63;101782.59;5056886;28;20024;-72
2023/06/14 07:50:28;;;;;;;1999.90;999.90;;;;;;;41.92;14.27;101786.34;5055626;28;20086;-71
2023/06/14 07:52:54;;;;;;;1999.90;999.90;;;;;;;39.77;14.63;101788.47;5055808;28;20071;-70
2023/06/14 07:55:19;;;;;;;1999.90;999.90;;;;;;;40.45;15.54;101790.28;5072731;28;20068;-71
2023/06/14 07:57:44;;;;;;;1999.90;999.90;;;;;;;41.78;14.25;101792.72;5074906;28;20021;-72
2023/06/14 08:00:15;;;;;;;1999.90;999.90;;;;;;;41.60;13.93;101791.34;5071698;28;20122;-71
2023/06/14 08:02:42;;;;;;;1999.90;999.90;;;;;;;42.57;13.57;101799.75;5057754;28;20032;-70
2023/06/14 08:05:09;;;;;;;1999.90;999.90;;;;;;;40.31;14.00;101806.56;5063571;28;20032;-72
2023/06/14 08:07:35;;;;;;;1999.90;999.90;;;;;;;39.57;15.31;101796.34;5063343;28;20032;-71
2023/06/14 08:10:00;;;;;;;1999.90;999.90;;;;;;;40.24;14.67;101800.13;5062485;28;20024;-71
2023/06/14 08:12:26;;;;;;;1999.90;999.90;;;;;;;39.40;14.57;101792.03;5069576;28;20031;-71
2023/06/14 08:14:51;;;;;;;1999.90;999.90;;;;;;;39.60;14.96;101798.72;5084030;28;20492;-70
2023/06/14 08:17:17;;;;;;;1999.90;999.90;;;;;;;39.75;14.91;101792.41;5061481;28;20032;-71
2023/06/14 08:19:42;;;;;;;1999.90;999.90;;;;;;;40.31;14.59;101790.13;5062988;28;20028;-70
2023/06/14 08:22:07;;;;;;;1999.90;999.90;;;;;;;38.80;14.93;101797.19;5053063;28;20023;-72
2023/06/14 08:24:33;;;;;;;1999.90;999.90;;;;;;;40.08;15.11;101789.38;5071106;28;20415;-71
2023/06/14 08:27:00;;;;;;;1999.90;999.90;;;;;;;41.84;14.72;101787.31;5051221;28;20087;-70
2023/06/14 08:29:29;;;;;;;1999.90;999.90;;;;;;;42.66;13.59;101795.81;5081909;28;20027;-64
2023/06/14 08:31:54;;;;;;;1999.90;999.90;;;;;;;42.70;13.16;101794.34;5065998;28;20082;-64
2023/06/14 08:34:20;;;;;;;1999.90;999.90;;;;;;;43.67;12.26;101799.56;5074152;28;20016;-64
2023/06/14 08:36:45;;;;;;;1999.90;999.90;;;;;;;42.70;13.10;101798.97;5053799;28;20120;-63
2023/06/14 08:39:11;;;;;;;1999.90;999.90;;;;;;;40.69;13.69;101802.84;5049862;28;20051;-63
2023/06/14 08:41:37;;;;;;;1999.90;999.90;;;;;;;44.13;12.47;101794.19;5069962;28;20088;-63
2023/06/14 08:44:02;;;;;;;1999.90;999.90;;;;;;;44.03;11.89;101795.47;5095008;28;20473;-64
2023/06/14 08:46:33;;;;;;;1999.90;999.90;;;;;;;43.88;12.06;101789.38;5097059;28;20114;-63
2023/06/14 08:49:00;;;;;;;1999.90;999.90;;;;;;;41.36;13.01;101795.38;5077115;28;20031;-63
2023/06/14 08:51:33;;;;;;;1999.90;999.90;;;;;;;41.07;13.22;101793.56;5079737;28;20384;-63
2023/06/14 08:54:01;;;;;;;1999.90;999.90;;;;;;;42.03;12.96;101785.75;5061095;28;20446;-63
2023/06/14 08:56:28;;;;;;;1999.90;999.90;;;;;;;42.60;12.70;101788.34;5055599;28;20052;-63
2023/06/14 08:58:56;;;;;;;1999.90;999.90;;;;;;;40.58;13.44;101790.50;5055579;28;20067;-63
2023/06/14 09:01:23;;;;;;;1999.90;999.90;;;;;;;43.37;11.58;101797.22;5068467;28;20024;-63
2023/06/14 09:03:49;;;;;;;1999.90;999.90;;;;;;;43.72;11.50;101799.78;5054647;28;20025;-64
2023/06/14 09:06:15;;;;;;;1999.90;999.90;;;;;;;44.01;11.69;101805.88;5048479;28;20111;-63
2023/06/14 09:08:47;;;;;;;1999.90;999.90;;;;;;;43.82;11.28;101796.56;5043725;28;20021;-63
2023/06/14 09:11:18;;;;;;;1999.90;999.90;;;;;;;43.92;11.56;101801.66;5059564;28;20028;-64
2023/06/14 09:13:44;;;;;;;967.75;884.53;;;;;;;44.42;10.99;101803.00;5039723;28;20062;-64
2023/06/14 09:16:09;;;;;;;964.65;881.95;;;;;;;44.08;11.20;101796.75;5034202;28;20029;-64
2023/06/14 09:18:44;;;;;;;968.97;884.65;;;;;;;44.17;11.70;101804.53;5033991;28;20088;-64
2023/06/14 09:21:11;;;;;;;971.22;887.35;;;;;;;42.74;11.59;101810.41;5051552;28;20037;-64
2023/06/14 09:23:40;;;;;;;975.42;890.50;;;;;;;42.40;12.13;101809.41;5051558;28;20055;-63
2023/06/14 09:26:14;;;;;;;972.80;887.15;;;;;;;40.96;13.23;101808.63;5044739;28;20071;-64
2023/06/14 09:28:47;;;;;;;1017.45;923.67;;;;;;;41.94;13.29;101811.66;5053362;28;20028;-64
2023/06/14 09:31:15;;;;;;;1035.10;938.50;;;;;;;41.54;12.76;101806.69;5033812;28;20085;-64
2023/06/14 09:33:48;;;;;;;988.50;901.00;;;;;;;40.61;13.27;101803.78;5045963;28;20024;-63
2023/06/14 09:36:25;;;;;;;994.20;904.95;;;;;;;40.96;13.62;101814.97;5060844;28;20119;-63
2023/06/14 09:39:07;;;;;;;1020.58;927.13;;;;;;;43.88;12.12;101814.16;5047048;28;20036;-64
2023/06/14 09:41:39;;;;;;;973.65;889.25;;;;;;;43.25;10.95;101820.91;5034140;28;20036;-63
2023/06/14 09:44:06;;;;;;;946.85;867.20;;;;;;;41.15;12.06;101813.50;5034174;28;20584;-66
2023/06/14 09:46:33;;;;;;;1007.08;915.65;;;;;;;42.80;12.41;101817.81;5049337;28;20111;-64
2023/06/14 09:48:59;;;;;;;963.35;880.35;;;;;;;43.86;11.28;101810.75;5047248;28;20282;-64
2023/06/14 09:51:26;;;;;;;975.58;891.85;;;;;;;43.80;11.01;101809.69;5071559;28;20075;-63
2023/06/14 09:53:52;;;;;;;937.20;859.35;;;;;;;43.37;11.24;101816.47;5040467;28;20369;-64
2023/06/14 09:56:26;;;;;;;942.13;863.92;;;;;;;43.20;11.27;101805.03;5043406;28;20041;-64
2023/06/14 09:58:55;;;;;;;947.85;868.42;;;;;;;43.27;11.23;101810.56;5042753;28;20120;-64
2023/06/14 10:01:22;;;;;;;1030.97;936.35;;;;;;;43.56;11.83;101816.72;5035025;28;20558;-64
2023/06/14 10:03:50;;;;;;;1007.80;918.42;;;;;;;41.89;11.96;101814.16;5033575;28;20036;-64
2023/06/14 10:06:17;;;;;;;988.25;902.75;;;;;;;43.32;10.91;101813.53;5061877;28;20062;-63
2023/06/14 10:08:43;;;;;;;1000.83;913.03;;;;;;;44.13;10.50;101814.31;5053503;28;20058;-64
2023/06/14 10:11:09;;;;;;;1004.25;916.53;;;;;;;43.97;10.78;101810.13;5059200;28;20024;-64
2023/06/14 10:13:35;;;;;;;979.85;896.13;;;;;;;42.92;10.14;101816.16;5049751;28;20021;-63
2023/06/14 10:16:26;;;;;;;975.95;892.50;;;;;;;44.56;9.69;101807.41;5053975;28;20469;-64
2023/06/14 10:19:14;;;;;;;975.83;893.47;;;;;;;45.33;9.42;101812.03;5049801;28;20033;-64
2023/06/14 10:22:05;;;;;;;978.22;895.17;;;;;;;44.19;9.83;101807.09;5051842;28;20036;-64
2023/06/14 10:24:35;;;;;;;969.08;887.20;;;;;;;43.49;10.26;101813.13;5064198;28;20569;-64
2023/06/14 10:27:01;;;;;;;979.72;896.03;;;;;;;43.50;10.09;101817.56;5057225;28;20435;-64
2023/06/14 10:29:32;;;;;;;986.20;900.50;;;;;;;43.08;10.40;101812.22;5040590;28;20028;-63
2023/06/14 10:31:59;;;;;;;977.13;893.95;;;;;;;43.36;10.17;101809.28;5035112;28;20519;-64
2023/06/14 10:34:29;;;;;;;984.00;898.80;;;;;;;44.07;9.85;101808.84;5050678;28;20025;-64
2023/06/14 10:37:06;;;;;;;988.85;902.45;;;;;;;43.12;10.13;101802.50;5050921;28;20036;-64
2023/06/14 10:39:53;;;;;;;975.95;892.20;;;;;;;45.16;9.47;101803.47;5031879;28;20590;-64
2023/06/14 10:42:19;;;;;;;984.15;898.15;;;;;;;43.93;10.96;101813.50;5045628;28;20114;-64
2023/06/14 10:44:45;;;;;;;975.78;891.65;;;;;;;45.75;9.61;101814.25;5046214;28;20033;-64
2023/06/14 10:47:24;;;;;;;974.67;892.08;;;;;;;44.66;10.02;101807.75;5036644;28;20399;-64